sensor_id;sensor_type;location;lat;lon;timestamp;temperature;humidity
1988;DHT22;12775;46.994;15.498;2022-10-26T00:00:45;12.90;99.90
1988;DHT22;12775;46.994;15.498;2022-10-26T00:03:11;12.90;99.90
1988;DHT22;12775;46.994;15.498;2022-10-26T00:05:38;12.90;99.90
1988;DHT22;12775;46.994;15.498;2022-10-26T00:08:05;12.90;99.90
1988;DHT22;12775;46.994;15.498;2022-10-26T00:10:33;12.90;99.90
1988;DHT22;12775;46.994;15.498;2022-10-26T00:12:59;12.90;99.90
1988;DHT22;12775;46.994;15.498;2022-10-26T00:15:25;13.00;99.90
1988;DHT22;12775;46.994;15.498;2022-10-26T00:17:53;12.90;99.90
1988;DHT22;12775;46.994;15.498;2022-10-26T00:20:19;13.00;99.90
1988;DHT22;12775;46.994;15.498;2022-10-26T00:22:46;13.00;99.90
1988;DHT22;12775;46.994;15.498;2022-10-26T00:25:12;13.00;99.90
1988;DHT22;12775;46.994;15.498;2022-10-26T00:27:39;13.00;99.90
1988;DHT22;12775;46.994;15.498;2022-10-26T00:30:06;13.00;99.90
1988;DHT22;12775;46.994;15.498;2022-10-26T00:32:33;13.00;99.90
1988;DHT22;12775;46.994;15.498;2022-10-26T00:34:59;13.00;99.90
1988;DHT22;12775;46.994;15.498;2022-10-26T00:37:26;13.00;99.90
1988;DHT22;12775;46.994;15.498;2022-10-26T00:39:53;13.00;99.90
1988;DHT22;12775;46.994;15.498;2022-10-26T00:42:20;13.00;99.90
1988;DHT22;12775;46.994;15.498;2022-10-26T00:45:03;13.00;99.90
1988;DHT22;12775;46.994;15.498;2022-10-26T00:47:32;13.00;99.90
1988;DHT22;12775;46.994;15.498;2022-10-26T00:49:58;13.10;99.90
1988;DHT22;12775;46.994;15.498;2022-10-26T00:52:23;13.00;99.90
1988;DHT22;12775;46.994;15.498;2022-10-26T00:54:50;13.00;99.90
1988;DHT22;12775;46.994;15.498;2022-10-26T00:57:17;13.00;99.90
1988;DHT22;12775;46.994;15.498;2022-10-26T00:59:43;13.10;99.90
1988;DHT22;12775;46.994;15.498;2022-10-26T01:02:10;13.10;99.90
1988;DHT22;12775;46.994;15.498;2022-10-26T01:04:36;13.10;99.90
1988;DHT22;12775;46.994;15.498;2022-10-26T01:07:03;13.00;99.90
1988;DHT22;12775;46.994;15.498;2022-10-26T01:09:30;13.00;99.90
1988;DHT22;12775;46.994;15.498;2022-10-26T01:11:56;13.00;99.90
1988;DHT22;12775;46.994;15.498;2022-10-26T01:14:24;13.00;99.90
1988;DHT22;12775;46.994;15.498;2022-10-26T01:17:00;13.00;99.90
1988;DHT22;12775;46.994;15.498;2022-10-26T01:19:51;13.00;99.90
1988;DHT22;12775;46.994;15.498;2022-10-26T01:22:14;13.00;99.90
1988;DHT22;12775;46.994;15.498;2022-10-26T01:25:01;12.90;99.90
1988;DHT22;12775;46.994;15.498;2022-10-26T01:27:38;13.00;99.90
1988;DHT22;12775;46.994;15.498;2022-10-26T01:30:28;13.00;99.90
1988;DHT22;12775;46.994;15.498;2022-10-26T01:32:56;12.90;99.90
1988;DHT22;12775;46.994;15.498;2022-10-26T01:35:37;12.90;99.90
1988;DHT22;12775;46.994;15.498;2022-10-26T01:38:06;12.90;99.90
1988;DHT22;12775;46.994;15.498;2022-10-26T01:40:34;12.90;99.90
1988;DHT22;12775;46.994;15.498;2022-10-26T01:43:01;12.80;99.90
1988;DHT22;12775;46.994;15.498;2022-10-26T01:45:26;12.90;99.90
1988;DHT22;12775;46.994;15.498;2022-10-26T01:47:53;12.90;99.90
1988;DHT22;12775;46.994;15.498;2022-10-26T01:50:19;12.90;99.90
1988;DHT22;12775;46.994;15.498;2022-10-26T01:52:49;12.90;99.90
1988;DHT22;12775;46.994;15.498;2022-10-26T01:57:54;12.90;99.90
1988;DHT22;12775;46.994;15.498;2022-10-26T02:00:20;12.90;99.90
1988;DHT22;12775;46.994;15.498;2022-10-26T02:02:54;12.90;99.90
1988;DHT22;12775;46.994;15.498;2022-10-26T02:05:30;12.80;99.90
1988;DHT22;12775;46.994;15.498;2022-10-26T02:08:13;12.80;99.90
1988;DHT22;12775;46.994;15.498;2022-10-26T02:10:57;12.70;99.90
1988;DHT22;12775;46.994;15.498;2022-10-26T02:13:32;12.70;99.90
1988;DHT22;12775;46.994;15.498;2022-10-26T02:16:11;12.60;99.90
1988;DHT22;12775;46.994;15.498;2022-10-26T02:18:35;12.60;99.90
1988;DHT22;12775;46.994;15.498;2022-10-26T02:21:04;12.60;99.90
1988;DHT22;12775;46.994;15.498;2022-10-26T02:23:30;12.60;99.90
1988;DHT22;12775;46.994;15.498;2022-10-26T02:25:57;12.60;99.90
1988;DHT22;12775;46.994;15.498;2022-10-26T02:28:26;12.60;99.90
1988;DHT22;12775;46.994;15.498;2022-10-26T02:30:51;12.60;99.90
1988;DHT22;12775;46.994;15.498;2022-10-26T02:33:17;12.60;99.90
1988;DHT22;12775;46.994;15.498;2022-10-26T02:35:45;12.60;99.90
1988;DHT22;12775;46.994;15.498;2022-10-26T02:38:11;12.60;99.90
1988;DHT22;12775;46.994;15.498;2022-10-26T02:40:37;12.60;99.90
1988;DHT22;12775;46.994;15.498;2022-10-26T02:43:05;12.60;99.90
1988;DHT22;12775;46.994;15.498;2022-10-26T02:45:33;12.60;99.90
1988;DHT22;12775;46.994;15.498;2022-10-26T02:47:58;12.60;99.90
1988;DHT22;12775;46.994;15.498;2022-10-26T02:50:30;12.50;99.90
1988;DHT22;12775;46.994;15.498;2022-10-26T02:53:11;12.50;99.90
1988;DHT22;12775;46.994;15.498;2022-10-26T02:55:37;12.50;99.90
1988;DHT22;12775;46.994;15.498;2022-10-26T02:58:05;12.40;99.90
1988;DHT22;12775;46.994;15.498;2022-10-26T03:00:30;12.40;99.90
1988;DHT22;12775;46.994;15.498;2022-10-26T03:02:57;12.40;99.90
1988;DHT22;12775;46.994;15.498;2022-10-26T03:05:25;12.30;99.90
1988;DHT22;12775;46.994;15.498;2022-10-26T03:07:50;12.30;99.90
1988;DHT22;12775;46.994;15.498;2022-10-26T03:10:17;12.30;99.90
1988;DHT22;12775;46.994;15.498;2022-10-26T03:12:44;12.30;99.90
1988;DHT22;12775;46.994;15.498;2022-10-26T03:15:10;12.30;99.90
1988;DHT22;12775;46.994;15.498;2022-10-26T03:17:37;12.30;99.90
1988;DHT22;12775;46.994;15.498;2022-10-26T03:20:04;12.30;99.90
1988;DHT22;12775;46.994;15.498;2022-10-26T03:22:31;12.30;99.90
1988;DHT22;12775;46.994;15.498;2022-10-26T03:24:57;12.20;99.90
1988;DHT22;12775;46.994;15.498;2022-10-26T03:27:24;12.20;99.90
1988;DHT22;12775;46.994;15.498;2022-10-26T03:29:51;12.10;99.90
1988;DHT22;12775;46.994;15.498;2022-10-26T03:32:17;12.10;99.90
1988;DHT22;12775;46.994;15.498;2022-10-26T03:34:44;12.10;99.90
1988;DHT22;12775;46.994;15.498;2022-10-26T03:37:10;12.10;99.90
1988;DHT22;12775;46.994;15.498;2022-10-26T03:39:37;12.10;99.90
1988;DHT22;12775;46.994;15.498;2022-10-26T03:42:04;12.00;99.90
1988;DHT22;12775;46.994;15.498;2022-10-26T03:44:30;12.00;99.90
1988;DHT22;12775;46.994;15.498;2022-10-26T03:46:57;12.00;99.90
1988;DHT22;12775;46.994;15.498;2022-10-26T03:49:23;11.90;99.90
1988;DHT22;12775;46.994;15.498;2022-10-26T03:51:50;11.90;99.90
1988;DHT22;12775;46.994;15.498;2022-10-26T03:54:16;11.90;99.90
1988;DHT22;12775;46.994;15.498;2022-10-26T03:56:44;11.90;99.90
1988;DHT22;12775;46.994;15.498;2022-10-26T03:59:10;11.90;99.90
1988;DHT22;12775;46.994;15.498;2022-10-26T04:01:37;11.90;99.90
1988;DHT22;12775;46.994;15.498;2022-10-26T04:04:04;11.90;99.90
1988;DHT22;12775;46.994;15.498;2022-10-26T04:06:30;11.90;99.90
1988;DHT22;12775;46.994;15.498;2022-10-26T04:08:57;11.90;99.90
1988;DHT22;12775;46.994;15.498;2022-10-26T04:11:23;11.90;99.90
1988;DHT22;12775;46.994;15.498;2022-10-26T04:13:50;11.90;99.90
1988;DHT22;12775;46.994;15.498;2022-10-26T04:16:17;11.90;99.90
1988;DHT22;12775;46.994;15.498;2022-10-26T04:18:44;12.00;99.90
1988;DHT22;12775;46.994;15.498;2022-10-26T04:21:11;11.90;99.90
1988;DHT22;12775;46.994;15.498;2022-10-26T04:23:37;12.00;99.90
1988;DHT22;12775;46.994;15.498;2022-10-26T04:26:04;12.00;99.90
1988;DHT22;12775;46.994;15.498;2022-10-26T04:28:31;12.00;99.90
1988;DHT22;12775;46.994;15.498;2022-10-26T04:30:58;12.00;99.90
1988;DHT22;12775;46.994;15.498;2022-10-26T04:33:25;12.10;99.90
1988;DHT22;12775;46.994;15.498;2022-10-26T04:35:51;12.10;99.90
1988;DHT22;12775;46.994;15.498;2022-10-26T04:38:18;12.00;99.90
1988;DHT22;12775;46.994;15.498;2022-10-26T04:40:44;12.10;99.90
1988;DHT22;12775;46.994;15.498;2022-10-26T04:43:11;12.10;99.90
1988;DHT22;12775;46.994;15.498;2022-10-26T04:45:38;12.10;99.90
1988;DHT22;12775;46.994;15.498;2022-10-26T04:48:06;12.10;99.90
1988;DHT22;12775;46.994;15.498;2022-10-26T04:50:32;12.10;99.90
1988;DHT22;12775;46.994;15.498;2022-10-26T04:52:58;12.10;99.90
1988;DHT22;12775;46.994;15.498;2022-10-26T04:55:25;12.10;99.90
1988;DHT22;12775;46.994;15.498;2022-10-26T04:57:51;12.10;99.90
1988;DHT22;12775;46.994;15.498;2022-10-26T05:00:18;12.10;99.90
1988;DHT22;12775;46.994;15.498;2022-10-26T05:02:44;12.10;99.90
1988;DHT22;12775;46.994;15.498;2022-10-26T05:05:11;12.00;99.90
1988;DHT22;12775;46.994;15.498;2022-10-26T05:07:38;12.00;99.90
1988;DHT22;12775;46.994;15.498;2022-10-26T05:10:05;12.00;99.90
1988;DHT22;12775;46.994;15.498;2022-10-26T05:12:31;12.00;99.90
1988;DHT22;12775;46.994;15.498;2022-10-26T05:14:58;12.00;99.90
1988;DHT22;12775;46.994;15.498;2022-10-26T05:17:25;11.90;99.90
1988;DHT22;12775;46.994;15.498;2022-10-26T05:19:51;11.80;99.90
1988;DHT22;12775;46.994;15.498;2022-10-26T05:22:18;11.90;99.90
1988;DHT22;12775;46.994;15.498;2022-10-26T05:24:44;11.90;99.90
1988;DHT22;12775;46.994;15.498;2022-10-26T05:27:11;11.90;99.90
1988;DHT22;12775;46.994;15.498;2022-10-26T05:29:38;11.90;99.90
1988;DHT22;12775;46.994;15.498;2022-10-26T05:32:04;11.90;99.90
1988;DHT22;12775;46.994;15.498;2022-10-26T05:34:31;11.90;99.90
1988;DHT22;12775;46.994;15.498;2022-10-26T05:36:57;11.90;99.90
1988;DHT22;12775;46.994;15.498;2022-10-26T05:39:24;12.00;99.90
1988;DHT22;12775;46.994;15.498;2022-10-26T05:41:51;11.90;99.90
1988;DHT22;12775;46.994;15.498;2022-10-26T05:44:17;11.90;99.90
1988;DHT22;12775;46.994;15.498;2022-10-26T05:46:45;11.90;99.90
1988;DHT22;12775;46.994;15.498;2022-10-26T05:49:10;12.00;99.90
1988;DHT22;12775;46.994;15.498;2022-10-26T05:51:37;12.00;99.90
1988;DHT22;12775;46.994;15.498;2022-10-26T05:54:04;12.00;99.90
1988;DHT22;12775;46.994;15.498;2022-10-26T05:56:36;12.00;99.90
1988;DHT22;12775;46.994;15.498;2022-10-26T05:59:02;12.00;99.90
1988;DHT22;12775;46.994;15.498;2022-10-26T06:02:05;12.00;99.90
1988;DHT22;12775;46.994;15.498;2022-10-26T06:04:25;12.00;99.90
1988;DHT22;12775;46.994;15.498;2022-10-26T06:06:46;12.00;99.90
1988;DHT22;12775;46.994;15.498;2022-10-26T06:09:13;11.90;99.90
1988;DHT22;12775;46.994;15.498;2022-10-26T06:11:40;11.90;99.90
1988;DHT22;12775;46.994;15.498;2022-10-26T06:14:07;11.90;99.90
1988;DHT22;12775;46.994;15.498;2022-10-26T06:16:40;11.90;99.90
1988;DHT22;12775;46.994;15.498;2022-10-26T06:19:17;11.90;99.90
1988;DHT22;12775;46.994;15.498;2022-10-26T06:22:02;11.90;99.90
1988;DHT22;12775;46.994;15.498;2022-10-26T06:24:35;11.90;99.90
1988;DHT22;12775;46.994;15.498;2022-10-26T06:27:04;11.90;99.90
1988;DHT22;12775;46.994;15.498;2022-10-26T06:29:36;11.90;99.90
1988;DHT22;12775;46.994;15.498;2022-10-26T06:31:58;11.90;99.90
1988;DHT22;12775;46.994;15.498;2022-10-26T06:34:26;11.90;99.90
1988;DHT22;12775;46.994;15.498;2022-10-26T06:36:52;11.90;99.90
1988;DHT22;12775;46.994;15.498;2022-10-26T06:39:18;11.90;99.90
1988;DHT22;12775;46.994;15.498;2022-10-26T06:41:45;11.90;99.90
1988;DHT22;12775;46.994;15.498;2022-10-26T06:44:14;12.00;99.90
1988;DHT22;12775;46.994;15.498;2022-10-26T06:46:42;11.80;99.90
1988;DHT22;12775;46.994;15.498;2022-10-26T06:49:17;11.70;99.90
1988;DHT22;12775;46.994;15.498;2022-10-26T06:51:42;11.80;99.90
1988;DHT22;12775;46.994;15.498;2022-10-26T06:54:13;11.90;99.90
1988;DHT22;12775;46.994;15.498;2022-10-26T06:56:37;11.90;99.90
1988;DHT22;12775;46.994;15.498;2022-10-26T06:59:07;11.80;99.90
1988;DHT22;12775;46.994;15.498;2022-10-26T07:01:32;11.80;99.90
1988;DHT22;12775;46.994;15.498;2022-10-26T07:03:59;11.90;99.90
1988;DHT22;12775;46.994;15.498;2022-10-26T07:06:27;11.80;99.90
1988;DHT22;12775;46.994;15.498;2022-10-26T07:08:53;11.90;99.90
1988;DHT22;12775;46.994;15.498;2022-10-26T07:11:20;11.80;99.90
1988;DHT22;12775;46.994;15.498;2022-10-26T07:13:47;11.80;99.90
1988;DHT22;12775;46.994;15.498;2022-10-26T07:16:13;11.80;99.90
1988;DHT22;12775;46.994;15.498;2022-10-26T07:18:40;11.90;99.90
1988;DHT22;12775;46.994;15.498;2022-10-26T07:21:06;12.00;99.90
1988;DHT22;12775;46.994;15.498;2022-10-26T07:23:33;12.10;99.90
1988;DHT22;12775;46.994;15.498;2022-10-26T07:26:00;12.10;99.90
1988;DHT22;12775;46.994;15.498;2022-10-26T07:28:26;12.10;99.90
1988;DHT22;12775;46.994;15.498;2022-10-26T07:30:53;12.10;99.90
1988;DHT22;12775;46.994;15.498;2022-10-26T07:33:19;12.20;99.90
1988;DHT22;12775;46.994;15.498;2022-10-26T07:35:47;12.30;99.90
1988;DHT22;12775;46.994;15.498;2022-10-26T07:38:14;12.30;99.90
1988;DHT22;12775;46.994;15.498;2022-10-26T07:40:40;12.40;99.90
1988;DHT22;12775;46.994;15.498;2022-10-26T07:43:07;12.50;99.90
1988;DHT22;12775;46.994;15.498;2022-10-26T07:45:33;12.40;99.90
1988;DHT22;12775;46.994;15.498;2022-10-26T07:48:00;12.50;99.90
1988;DHT22;12775;46.994;15.498;2022-10-26T07:50:27;12.50;99.90
1988;DHT22;12775;46.994;15.498;2022-10-26T07:52:53;12.50;99.90
1988;DHT22;12775;46.994;15.498;2022-10-26T07:55:20;12.50;99.90
1988;DHT22;12775;46.994;15.498;2022-10-26T07:57:46;12.70;99.90
1988;DHT22;12775;46.994;15.498;2022-10-26T08:00:14;12.80;99.90
1988;DHT22;12775;46.994;15.498;2022-10-26T08:02:41;12.90;99.90
1988;DHT22;12775;46.994;15.498;2022-10-26T08:05:08;12.90;99.90
1988;DHT22;12775;46.994;15.498;2022-10-26T08:07:39;13.10;99.90
1988;DHT22;12775;46.994;15.498;2022-10-26T08:10:02;13.10;99.90
1988;DHT22;12775;46.994;15.498;2022-10-26T08:12:29;13.20;99.90
1988;DHT22;12775;46.994;15.498;2022-10-26T08:14:56;13.30;99.90
1988;DHT22;12775;46.994;15.498;2022-10-26T08:17:23;13.30;99.90
1988;DHT22;12775;46.994;15.498;2022-10-26T08:19:49;13.30;99.90
1988;DHT22;12775;46.994;15.498;2022-10-26T08:22:16;13.50;99.90
1988;DHT22;12775;46.994;15.498;2022-10-26T08:24:42;13.50;99.90
1988;DHT22;12775;46.994;15.498;2022-10-26T08:27:09;13.60;99.90
1988;DHT22;12775;46.994;15.498;2022-10-26T08:29:36;13.70;99.90
1988;DHT22;12775;46.994;15.498;2022-10-26T08:32:02;13.80;99.90
1988;DHT22;12775;46.994;15.498;2022-10-26T08:34:29;13.90;99.90
1988;DHT22;12775;46.994;15.498;2022-10-26T08:36:55;14.00;99.90
1988;DHT22;12775;46.994;15.498;2022-10-26T08:39:22;14.10;99.90
1988;DHT22;12775;46.994;15.498;2022-10-26T08:41:49;14.20;99.90
1988;DHT22;12775;46.994;15.498;2022-10-26T08:44:35;14.30;99.90
1988;DHT22;12775;46.994;15.498;2022-10-26T08:47:05;14.40;99.90
1988;DHT22;12775;46.994;15.498;2022-10-26T08:49:34;14.50;99.90
1988;DHT22;12775;46.994;15.498;2022-10-26T08:51:58;14.50;99.90
1988;DHT22;12775;46.994;15.498;2022-10-26T08:54:36;14.60;99.90
1988;DHT22;12775;46.994;15.498;2022-10-26T08:57:01;14.70;99.90
1988;DHT22;12775;46.994;15.498;2022-10-26T08:59:30;14.80;99.90
1988;DHT22;12775;46.994;15.498;2022-10-26T09:01:55;14.90;99.90
1988;DHT22;12775;46.994;15.498;2022-10-26T09:04:25;15.10;99.90
1988;DHT22;12775;46.994;15.498;2022-10-26T09:07:00;15.30;99.90
1988;DHT22;12775;46.994;15.498;2022-10-26T09:09:27;15.30;99.90
1988;DHT22;12775;46.994;15.498;2022-10-26T09:12:11;15.40;99.90
1988;DHT22;12775;46.994;15.498;2022-10-26T09:14:38;15.50;99.90
1988;DHT22;12775;46.994;15.498;2022-10-26T09:17:13;15.60;99.90
1988;DHT22;12775;46.994;15.498;2022-10-26T09:22:36;15.80;99.90
1988;DHT22;12775;46.994;15.498;2022-10-26T09:25:02;15.90;99.90
1988;DHT22;12775;46.994;15.498;2022-10-26T09:27:26;16.00;99.90
1988;DHT22;12775;46.994;15.498;2022-10-26T09:29:52;16.00;99.90
1988;DHT22;12775;46.994;15.498;2022-10-26T09:32:24;16.20;99.90
1988;DHT22;12775;46.994;15.498;2022-10-26T09:34:54;16.30;99.90
1988;DHT22;12775;46.994;15.498;2022-10-26T09:37:23;16.30;99.90
1988;DHT22;12775;46.994;15.498;2022-10-26T09:39:55;16.40;99.90
1988;DHT22;12775;46.994;15.498;2022-10-26T09:42:20;16.50;99.90
1988;DHT22;12775;46.994;15.498;2022-10-26T09:44:58;16.50;99.90
1988;DHT22;12775;46.994;15.498;2022-10-26T09:50:14;16.70;99.90
1988;DHT22;12775;46.994;15.498;2022-10-26T09:52:32;16.80;99.90
1988;DHT22;12775;46.994;15.498;2022-10-26T09:54:59;16.90;99.90
1988;DHT22;12775;46.994;15.498;2022-10-26T09:57:26;16.90;99.90
1988;DHT22;12775;46.994;15.498;2022-10-26T09:59:52;17.00;99.90
1988;DHT22;12775;46.994;15.498;2022-10-26T10:02:31;17.10;99.90
1988;DHT22;12775;46.994;15.498;2022-10-26T10:04:57;17.20;99.90
1988;DHT22;12775;46.994;15.498;2022-10-26T10:07:24;17.30;99.90
1988;DHT22;12775;46.994;15.498;2022-10-26T10:12:29;17.50;99.90
1988;DHT22;12775;46.994;15.498;2022-10-26T10:14:56;17.60;99.90
1988;DHT22;12775;46.994;15.498;2022-10-26T10:17:22;17.80;99.90
1988;DHT22;12775;46.994;15.498;2022-10-26T10:19:48;17.90;99.90
1988;DHT22;12775;46.994;15.498;2022-10-26T10:22:18;18.00;99.90
1988;DHT22;12775;46.994;15.498;2022-10-26T10:24:53;18.20;99.90
1988;DHT22;12775;46.994;15.498;2022-10-26T10:27:19;18.30;99.90
1988;DHT22;12775;46.994;15.498;2022-10-26T10:29:49;18.50;99.90
1988;DHT22;12775;46.994;15.498;2022-10-26T10:32:18;18.50;99.90
1988;DHT22;12775;46.994;15.498;2022-10-26T10:34:44;18.60;99.90
1988;DHT22;12775;46.994;15.498;2022-10-26T10:37:33;18.70;99.90
1988;DHT22;12775;46.994;15.498;2022-10-26T10:39:59;18.90;99.90
1988;DHT22;12775;46.994;15.498;2022-10-26T10:42:27;19.00;99.90
1988;DHT22;12775;46.994;15.498;2022-10-26T10:44:53;19.20;99.90
1988;DHT22;12775;46.994;15.498;2022-10-26T10:47:21;19.30;99.60
1988;DHT22;12775;46.994;15.498;2022-10-26T10:49:51;19.30;99.60
1988;DHT22;12775;46.994;15.498;2022-10-26T10:52:22;19.40;98.50
1988;DHT22;12775;46.994;15.498;2022-10-26T10:54:48;19.40;99.90
1988;DHT22;12775;46.994;15.498;2022-10-26T10:57:24;19.60;99.90
1988;DHT22;12775;46.994;15.498;2022-10-26T10:59:58;19.80;99.90
1988;DHT22;12775;46.994;15.498;2022-10-26T11:02:44;19.80;99.90
1988;DHT22;12775;46.994;15.498;2022-10-26T11:08:14;20.00;99.90
1988;DHT22;12775;46.994;15.498;2022-10-26T11:10:39;20.30;99.90
1988;DHT22;12775;46.994;15.498;2022-10-26T11:13:09;20.50;99.90
1988;DHT22;12775;46.994;15.498;2022-10-26T11:15:32;20.60;99.90
1988;DHT22;12775;46.994;15.498;2022-10-26T11:18:09;20.70;99.80
1988;DHT22;12775;46.994;15.498;2022-10-26T11:20:34;20.90;98.90
1988;DHT22;12775;46.994;15.498;2022-10-26T11:23:16;21.00;98.30
1988;DHT22;12775;46.994;15.498;2022-10-26T11:25:46;21.10;97.70
1988;DHT22;12775;46.994;15.498;2022-10-26T11:28:13;21.20;97.80
1988;DHT22;12775;46.994;15.498;2022-10-26T11:30:40;21.30;97.00
1988;DHT22;12775;46.994;15.498;2022-10-26T11:33:08;21.30;96.80
1988;DHT22;12775;46.994;15.498;2022-10-26T11:38:12;21.30;96.20
1988;DHT22;12775;46.994;15.498;2022-10-26T11:40:48;21.10;93.80
1988;DHT22;12775;46.994;15.498;2022-10-26T11:43:25;21.20;95.00
1988;DHT22;12775;46.994;15.498;2022-10-26T11:45:56;21.30;94.60
1988;DHT22;12775;46.994;15.498;2022-10-26T11:48:19;21.30;95.00
1988;DHT22;12775;46.994;15.498;2022-10-26T11:50:48;21.50;95.60
1988;DHT22;12775;46.994;15.498;2022-10-26T11:53:15;21.50;95.60
1988;DHT22;12775;46.994;15.498;2022-10-26T11:55:40;21.60;95.40
1988;DHT22;12775;46.994;15.498;2022-10-26T11:58:07;21.60;94.60
1988;DHT22;12775;46.994;15.498;2022-10-26T12:00:43;21.70;94.30
1988;DHT22;12775;46.994;15.498;2022-10-26T12:03:02;21.80;94.40
1988;DHT22;12775;46.994;15.498;2022-10-26T12:05:45;21.70;94.30
1988;DHT22;12775;46.994;15.498;2022-10-26T12:08:14;21.80;94.30
1988;DHT22;12775;46.994;15.498;2022-10-26T12:10:40;21.60;93.10
1988;DHT22;12775;46.994;15.498;2022-10-26T12:15:42;21.60;93.90
1988;DHT22;12775;46.994;15.498;2022-10-26T12:18:41;21.60;94.00
1988;DHT22;12775;46.994;15.498;2022-10-26T12:20:52;21.70;94.90
1988;DHT22;12775;46.994;15.498;2022-10-26T12:23:18;21.80;95.00
1988;DHT22;12775;46.994;15.498;2022-10-26T12:25:44;21.70;93.50
1988;DHT22;12775;46.994;15.498;2022-10-26T12:30:49;21.70;93.90
1988;DHT22;12775;46.994;15.498;2022-10-26T12:33:27;21.80;93.30
1988;DHT22;12775;46.994;15.498;2022-10-26T12:35:53;21.80;93.40
1988;DHT22;12775;46.994;15.498;2022-10-26T12:41:21;21.50;93.40
1988;DHT22;12775;46.994;15.498;2022-10-26T12:43:48;21.20;91.90
1988;DHT22;12775;46.994;15.498;2022-10-26T12:46:37;21.20;92.70
1988;DHT22;12775;46.994;15.498;2022-10-26T12:49:06;21.10;92.70
1988;DHT22;12775;46.994;15.498;2022-10-26T12:51:45;21.30;93.00
1988;DHT22;12775;46.994;15.498;2022-10-26T12:54:24;21.30;92.80
1988;DHT22;12775;46.994;15.498;2022-10-26T12:56:53;21.30;92.80
1988;DHT22;12775;46.994;15.498;2022-10-26T12:59:27;21.30;92.90
1988;DHT22;12775;46.994;15.498;2022-10-26T13:02:06;21.30;93.50
1988;DHT22;12775;46.994;15.498;2022-10-26T13:04:37;21.10;92.70
1988;DHT22;12775;46.994;15.498;2022-10-26T13:07:20;21.00;93.10
1988;DHT22;12775;46.994;15.498;2022-10-26T13:10:15;20.80;93.50
1988;DHT22;12775;46.994;15.498;2022-10-26T13:12:36;20.80;93.50
1988;DHT22;12775;46.994;15.498;2022-10-26T13:15:03;20.90;93.70
1988;DHT22;12775;46.994;15.498;2022-10-26T13:17:29;20.70;93.30
1988;DHT22;12775;46.994;15.498;2022-10-26T13:19:58;20.70;93.40
1988;DHT22;12775;46.994;15.498;2022-10-26T13:22:23;20.80;93.20
1988;DHT22;12775;46.994;15.498;2022-10-26T13:24:51;20.70;93.10
1988;DHT22;12775;46.994;15.498;2022-10-26T13:27:39;20.80;93.60
1988;DHT22;12775;46.994;15.498;2022-10-26T13:30:17;20.90;93.50
1988;DHT22;12775;46.994;15.498;2022-10-26T13:32:39;21.00;93.60
1988;DHT22;12775;46.994;15.498;2022-10-26T13:35:05;20.70;92.40
1988;DHT22;12775;46.994;15.498;2022-10-26T13:37:32;20.90;93.80
1988;DHT22;12775;46.994;15.498;2022-10-26T13:39:59;21.00;94.30
1988;DHT22;12775;46.994;15.498;2022-10-26T13:42:26;21.10;93.20
1988;DHT22;12775;46.994;15.498;2022-10-26T13:44:56;21.10;92.90
1988;DHT22;12775;46.994;15.498;2022-10-26T13:49:54;21.20;93.90
1988;DHT22;12775;46.994;15.498;2022-10-26T13:52:23;21.20;94.10
1988;DHT22;12775;46.994;15.498;2022-10-26T13:54:52;21.30;93.80
1988;DHT22;12775;46.994;15.498;2022-10-26T13:57:41;21.30;93.80
1988;DHT22;12775;46.994;15.498;2022-10-26T14:00:15;21.40;94.60
1988;DHT22;12775;46.994;15.498;2022-10-26T14:02:42;21.50;94.90
1988;DHT22;12775;46.994;15.498;2022-10-26T14:05:10;21.50;95.00
1988;DHT22;12775;46.994;15.498;2022-10-26T14:07:43;21.50;95.40
1988;DHT22;12775;46.994;15.498;2022-10-26T14:10:26;21.50;95.70
1988;DHT22;12775;46.994;15.498;2022-10-26T14:12:52;21.60;95.40
1988;DHT22;12775;46.994;15.498;2022-10-26T14:15:26;21.60;94.90
1988;DHT22;12775;46.994;15.498;2022-10-26T14:17:51;21.70;94.00
1988;DHT22;12775;46.994;15.498;2022-10-26T14:20:18;21.70;94.30
1988;DHT22;12775;46.994;15.498;2022-10-26T14:22:44;21.70;94.60
1988;DHT22;12775;46.994;15.498;2022-10-26T14:25:18;21.70;93.40
1988;DHT22;12775;46.994;15.498;2022-10-26T14:27:44;21.70;92.80
1988;DHT22;12775;46.994;15.498;2022-10-26T14:30:21;21.50;92.30
1988;DHT22;12775;46.994;15.498;2022-10-26T14:32:46;21.50;92.10
1988;DHT22;12775;46.994;15.498;2022-10-26T14:35:13;21.50;92.30
1988;DHT22;12775;46.994;15.498;2022-10-26T14:37:44;21.50;92.00
1988;DHT22;12775;46.994;15.498;2022-10-26T14:40:15;21.50;92.50
1988;DHT22;12775;46.994;15.498;2022-10-26T14:42:41;21.40;92.60
1988;DHT22;12775;46.994;15.498;2022-10-26T14:45:27;21.40;92.50
1988;DHT22;12775;46.994;15.498;2022-10-26T14:47:53;21.30;92.70
1988;DHT22;12775;46.994;15.498;2022-10-26T14:50:20;21.30;93.70
1988;DHT22;12775;46.994;15.498;2022-10-26T14:52:50;21.30;94.10
1988;DHT22;12775;46.994;15.498;2022-10-26T14:55:16;21.20;92.00
1988;DHT22;12775;46.994;15.498;2022-10-26T14:57:44;21.10;93.50
1988;DHT22;12775;46.994;15.498;2022-10-26T15:00:12;21.20;94.00
1988;DHT22;12775;46.994;15.498;2022-10-26T15:02:37;21.20;94.40
1988;DHT22;12775;46.994;15.498;2022-10-26T15:05:27;21.20;94.60
1988;DHT22;12775;46.994;15.498;2022-10-26T15:07:54;21.30;94.80
1988;DHT22;12775;46.994;15.498;2022-10-26T15:13:06;21.20;94.20
1988;DHT22;12775;46.994;15.498;2022-10-26T15:15:25;21.10;94.10
1988;DHT22;12775;46.994;15.498;2022-10-26T15:17:53;21.00;94.10
1988;DHT22;12775;46.994;15.498;2022-10-26T15:20:20;21.00;94.20
1988;DHT22;12775;46.994;15.498;2022-10-26T15:22:52;21.00;94.40
1988;DHT22;12775;46.994;15.498;2022-10-26T15:25:19;21.00;94.10
1988;DHT22;12775;46.994;15.498;2022-10-26T15:27:44;20.90;94.10
1988;DHT22;12775;46.994;15.498;2022-10-26T15:30:21;20.80;94.50
1988;DHT22;12775;46.994;15.498;2022-10-26T15:32:47;20.80;94.70
1988;DHT22;12775;46.994;15.498;2022-10-26T15:35:20;20.70;94.70
1988;DHT22;12775;46.994;15.498;2022-10-26T15:37:41;20.70;94.70
1988;DHT22;12775;46.994;15.498;2022-10-26T15:40:08;20.70;94.70
1988;DHT22;12775;46.994;15.498;2022-10-26T15:42:35;20.60;94.90
1988;DHT22;12775;46.994;15.498;2022-10-26T15:45:01;20.60;95.00
1988;DHT22;12775;46.994;15.498;2022-10-26T15:47:29;20.60;95.10
1988;DHT22;12775;46.994;15.498;2022-10-26T15:49:54;20.50;95.00
1988;DHT22;12775;46.994;15.498;2022-10-26T15:52:21;20.50;95.10
1988;DHT22;12775;46.994;15.498;2022-10-26T15:54:47;20.40;95.30
1988;DHT22;12775;46.994;15.498;2022-10-26T15:57:14;20.40;95.40
1988;DHT22;12775;46.994;15.498;2022-10-26T15:59:41;20.30;95.50
1988;DHT22;12775;46.994;15.498;2022-10-26T16:02:13;20.20;95.50
1988;DHT22;12775;46.994;15.498;2022-10-26T16:04:39;20.20;95.60
1988;DHT22;12775;46.994;15.498;2022-10-26T16:07:14;20.00;95.50
1988;DHT22;12775;46.994;15.498;2022-10-26T16:09:41;20.00;95.50